sensor_id;sensor_type;location;lat;lon;timestamp;P1;durP1;ratioP1;P2;durP2;ratioP2
43311;SDS011;30041;48.300;16.352;2022-08-19T00:01:13;8.23;;;3.15;;
43311;SDS011;30041;48.300;16.352;2022-08-19T00:03:39;9.32;;;3.17;;
43311;SDS011;30041;48.300;16.352;2022-08-19T00:06:05;8.35;;;3.20;;
43311;SDS011;30041;48.300;16.352;2022-08-19T00:08:30;9.32;;;3.38;;
43311;SDS011;30041;48.300;16.352;2022-08-19T00:10:56;8.48;;;3.05;;
43311;SDS011;30041;48.300;16.352;2022-08-19T00:13:22;10.48;;;3.15;;
43311;SDS011;30041;48.300;16.352;2022-08-19T00:15:48;9.57;;;3.35;;
43311;SDS011;30041;48.300;16.352;2022-08-19T00:18:13;11.70;;;3.13;;
43311;SDS011;30041;48.300;16.352;2022-08-19T00:20:42;8.82;;;2.83;;
43311;SDS011;30041;48.300;16.352;2022-08-19T00:23:08;9.57;;;3.30;;
43311;SDS011;30041;48.300;16.352;2022-08-19T00:25:33;7.00;;;2.75;;
43311;SDS011;30041;48.300;16.352;2022-08-19T00:28:02;8.35;;;2.80;;
43311;SDS011;30041;48.300;16.352;2022-08-19T00:30:28;8.88;;;2.92;;
43311;SDS011;30041;48.300;16.352;2022-08-19T00:32:57;9.13;;;3.08;;
43311;SDS011;30041;48.300;16.352;2022-08-19T00:35:23;7.88;;;2.90;;
43311;SDS011;30041;48.300;16.352;2022-08-19T00:37:49;9.45;;;3.10;;
43311;SDS011;30041;48.300;16.352;2022-08-19T00:40:15;8.18;;;2.80;;
43311;SDS011;30041;48.300;16.352;2022-08-19T00:42:42;9.07;;;3.00;;
43311;SDS011;30041;48.300;16.352;2022-08-19T00:45:09;8.18;;;2.72;;
43311;SDS011;30041;48.300;16.352;2022-08-19T00:47:45;8.95;;;3.10;;
43311;SDS011;30041;48.300;16.352;2022-08-19T00:50:12;9.60;;;3.30;;
43311;SDS011;30041;48.300;16.352;2022-08-19T00:52:43;7.15;;;3.08;;
43311;SDS011;30041;48.300;16.352;2022-08-19T00:55:14;9.23;;;2.53;;
43311;SDS011;30041;48.300;16.352;2022-08-19T00:57:44;5.75;;;2.50;;
43311;SDS011;30041;48.300;16.352;2022-08-19T01:00:16;7.55;;;3.42;;
43311;SDS011;30041;48.300;16.352;2022-08-19T01:02:43;8.07;;;2.95;;
43311;SDS011;30041;48.300;16.352;2022-08-19T01:05:13;8.20;;;2.58;;
43311;SDS011;30041;48.300;16.352;2022-08-19T01:07:41;11.13;;;3.13;;
43311;SDS011;30041;48.300;16.352;2022-08-19T01:10:09;12.30;;;2.90;;
43311;SDS011;30041;48.300;16.352;2022-08-19T01:12:37;8.30;;;2.92;;
43311;SDS011;30041;48.300;16.352;2022-08-19T01:15:05;9.32;;;3.25;;
43311;SDS011;30041;48.300;16.352;2022-08-19T01:17:32;11.80;;;3.22;;
43311;SDS011;30041;48.300;16.352;2022-08-19T01:19:59;7.97;;;2.80;;
43311;SDS011;30041;48.300;16.352;2022-08-19T01:24:54;10.65;;;3.13;;
43311;SDS011;30041;48.300;16.352;2022-08-19T01:27:20;9.30;;;3.38;;
43311;SDS011;30041;48.300;16.352;2022-08-19T01:29:45;7.10;;;3.10;;
43311;SDS011;30041;48.300;16.352;2022-08-19T01:32:12;7.40;;;2.92;;
43311;SDS011;30041;48.300;16.352;2022-08-19T01:34:40;7.75;;;2.90;;
43311;SDS011;30041;48.300;16.352;2022-08-19T01:37:07;8.43;;;2.50;;
43311;SDS011;30041;48.300;16.352;2022-08-19T01:39:34;9.05;;;2.78;;
43311;SDS011;30041;48.300;16.352;2022-08-19T01:42:00;5.35;;;2.55;;
43311;SDS011;30041;48.300;16.352;2022-08-19T01:44:25;10.05;;;2.92;;
43311;SDS011;30041;48.300;16.352;2022-08-19T01:46:54;6.75;;;2.60;;
43311;SDS011;30041;48.300;16.352;2022-08-19T01:49:20;8.45;;;2.83;;
43311;SDS011;30041;48.300;16.352;2022-08-19T01:51:50;9.60;;;2.88;;
43311;SDS011;30041;48.300;16.352;2022-08-19T01:54:17;6.22;;;2.80;;
43311;SDS011;30041;48.300;16.352;2022-08-19T01:56:43;8.18;;;2.95;;
43311;SDS011;30041;48.300;16.352;2022-08-19T01:59:16;6.50;;;2.78;;
43311;SDS011;30041;48.300;16.352;2022-08-19T02:01:44;5.22;;;2.65;;
43311;SDS011;30041;48.300;16.352;2022-08-19T02:04:13;8.77;;;2.90;;
43311;SDS011;30041;48.300;16.352;2022-08-19T02:06:38;9.65;;;3.10;;
43311;SDS011;30041;48.300;16.352;2022-08-19T02:09:05;6.80;;;2.60;;
43311;SDS011;30041;48.300;16.352;2022-08-19T02:11:32;7.45;;;3.00;;
43311;SDS011;30041;48.300;16.352;2022-08-19T02:14:01;7.68;;;3.20;;
43311;SDS011;30041;48.300;16.352;2022-08-19T02:16:29;10.77;;;3.33;;
43311;SDS011;30041;48.300;16.352;2022-08-19T02:18:54;10.18;;;3.22;;
43311;SDS011;30041;48.300;16.352;2022-08-19T02:21:21;9.43;;;3.17;;
43311;SDS011;30041;48.300;16.352;2022-08-19T02:23:48;6.55;;;2.80;;
43311;SDS011;30041;48.300;16.352;2022-08-19T02:26:16;10.05;;;3.38;;
43311;SDS011;30041;48.300;16.352;2022-08-19T02:28:43;11.40;;;3.25;;
43311;SDS011;30041;48.300;16.352;2022-08-19T02:31:12;9.13;;;3.15;;
43311;SDS011;30041;48.300;16.352;2022-08-19T02:33:41;10.20;;;3.60;;
43311;SDS011;30041;48.300;16.352;2022-08-19T02:36:08;8.40;;;2.63;;
43311;SDS011;30041;48.300;16.352;2022-08-19T02:38:34;7.80;;;3.55;;
43311;SDS011;30041;48.300;16.352;2022-08-19T02:41:03;7.20;;;3.50;;
43311;SDS011;30041;48.300;16.352;2022-08-19T02:43:32;8.13;;;3.30;;
43311;SDS011;30041;48.300;16.352;2022-08-19T02:45:59;7.38;;;3.17;;
43311;SDS011;30041;48.300;16.352;2022-08-19T02:48:25;9.38;;;3.20;;
43311;SDS011;30041;48.300;16.352;2022-08-19T02:50:51;8.38;;;3.35;;
43311;SDS011;30041;48.300;16.352;2022-08-19T02:53:17;8.68;;;3.38;;
43311;SDS011;30041;48.300;16.352;2022-08-19T02:55:44;9.75;;;3.03;;
43311;SDS011;30041;48.300;16.352;2022-08-19T02:58:11;10.52;;;3.22;;
43311;SDS011;30041;48.300;16.352;2022-08-19T03:00:41;8.60;;;3.03;;
43311;SDS011;30041;48.300;16.352;2022-08-19T03:03:08;7.35;;;3.00;;
43311;SDS011;30041;48.300;16.352;2022-08-19T03:06:01;10.15;;;3.15;;
43311;SDS011;30041;48.300;16.352;2022-08-19T03:08:32;8.07;;;3.60;;
43311;SDS011;30041;48.300;16.352;2022-08-19T03:10:58;8.50;;;3.50;;
43311;SDS011;30041;48.300;16.352;2022-08-19T03:13:24;7.13;;;3.28;;
43311;SDS011;30041;48.300;16.352;2022-08-19T03:15:49;8.95;;;3.17;;
43311;SDS011;30041;48.300;16.352;2022-08-19T03:18:15;7.90;;;3.33;;
43311;SDS011;30041;48.300;16.352;2022-08-19T03:20:45;9.50;;;3.17;;
43311;SDS011;30041;48.300;16.352;2022-08-19T03:23:13;9.77;;;3.30;;
43311;SDS011;30041;48.300;16.352;2022-08-19T03:25:42;6.05;;;3.15;;
43311;SDS011;30041;48.300;16.352;2022-08-19T03:28:10;7.55;;;3.22;;
43311;SDS011;30041;48.300;16.352;2022-08-19T03:30:37;6.25;;;3.05;;
43311;SDS011;30041;48.300;16.352;2022-08-19T03:33:06;9.65;;;3.58;;
43311;SDS011;30041;48.300;16.352;2022-08-19T03:35:32;6.38;;;3.35;;
43311;SDS011;30041;48.300;16.352;2022-08-19T03:37:58;7.35;;;3.42;;
43311;SDS011;30041;48.300;16.352;2022-08-19T03:40:25;7.45;;;3.35;;
43311;SDS011;30041;48.300;16.352;2022-08-19T03:42:51;6.45;;;3.20;;
43311;SDS011;30041;48.300;16.352;2022-08-19T03:45:17;5.88;;;3.20;;
43311;SDS011;30041;48.300;16.352;2022-08-19T03:47:42;6.40;;;3.50;;
43311;SDS011;30041;48.300;16.352;2022-08-19T03:50:08;5.68;;;3.05;;
43311;SDS011;30041;48.300;16.352;2022-08-19T03:52:37;8.93;;;3.30;;
43311;SDS011;30041;48.300;16.352;2022-08-19T03:55:03;9.38;;;3.53;;
43311;SDS011;30041;48.300;16.352;2022-08-19T03:57:29;6.30;;;3.20;;
43311;SDS011;30041;48.300;16.352;2022-08-19T03:59:55;6.75;;;3.13;;
43311;SDS011;30041;48.300;16.352;2022-08-19T04:02:20;8.10;;;3.53;;
43311;SDS011;30041;48.300;16.352;2022-08-19T04:04:49;6.90;;;3.40;;
43311;SDS011;30041;48.300;16.352;2022-08-19T04:07:18;7.30;;;3.22;;
43311;SDS011;30041;48.300;16.352;2022-08-19T04:09:44;6.40;;;3.00;;
43311;SDS011;30041;48.300;16.352;2022-08-19T04:12:09;7.45;;;3.50;;
43311;SDS011;30041;48.300;16.352;2022-08-19T04:14:35;7.22;;;3.58;;
43311;SDS011;30041;48.300;16.352;2022-08-19T04:17:01;6.70;;;3.28;;
43311;SDS011;30041;48.300;16.352;2022-08-19T04:19:29;8.00;;;3.25;;
43311;SDS011;30041;48.300;16.352;2022-08-19T04:21:55;5.43;;;3.47;;
43311;SDS011;30041;48.300;16.352;2022-08-19T04:24:21;7.05;;;3.75;;
43311;SDS011;30041;48.300;16.352;2022-08-19T04:26:47;8.05;;;3.70;;
43311;SDS011;30041;48.300;16.352;2022-08-19T04:29:16;8.90;;;4.70;;
43311;SDS011;30041;48.300;16.352;2022-08-19T04:31:45;8.98;;;4.50;;
43311;SDS011;30041;48.300;16.352;2022-08-19T04:34:12;7.68;;;4.65;;
43311;SDS011;30041;48.300;16.352;2022-08-19T04:36:40;11.13;;;4.95;;
43311;SDS011;30041;48.300;16.352;2022-08-19T04:39:12;8.77;;;4.93;;
43311;SDS011;30041;48.300;16.352;2022-08-19T04:41:40;6.65;;;4.90;;
43311;SDS011;30041;48.300;16.352;2022-08-19T04:44:06;9.75;;;4.85;;
43311;SDS011;30041;48.300;16.352;2022-08-19T04:46:32;12.48;;;5.50;;
43311;SDS011;30041;48.300;16.352;2022-08-19T04:48:59;9.70;;;5.13;;
43311;SDS011;30041;48.300;16.352;2022-08-19T04:51:26;9.07;;;5.03;;
43311;SDS011;30041;48.300;16.352;2022-08-19T04:53:52;9.32;;;5.05;;
43311;SDS011;30041;48.300;16.352;2022-08-19T04:56:18;7.20;;;4.90;;
43311;SDS011;30041;48.300;16.352;2022-08-19T04:58:45;8.48;;;5.03;;
43311;SDS011;30041;48.300;16.352;2022-08-19T05:01:12;8.90;;;5.30;;
43311;SDS011;30041;48.300;16.352;2022-08-19T05:03:41;7.28;;;4.88;;
43311;SDS011;30041;48.300;16.352;2022-08-19T05:06:08;8.15;;;5.28;;
43311;SDS011;30041;48.300;16.352;2022-08-19T05:08:36;9.85;;;5.22;;
43311;SDS011;30041;48.300;16.352;2022-08-19T05:11:11;8.98;;;5.03;;
43311;SDS011;30041;48.300;16.352;2022-08-19T05:13:44;8.48;;;5.20;;
43311;SDS011;30041;48.300;16.352;2022-08-19T05:16:11;8.15;;;5.35;;
43311;SDS011;30041;48.300;16.352;2022-08-19T05:18:38;8.63;;;5.28;;
43311;SDS011;30041;48.300;16.352;2022-08-19T05:21:06;11.05;;;5.32;;
43311;SDS011;30041;48.300;16.352;2022-08-19T05:23:38;11.88;;;5.82;;
43311;SDS011;30041;48.300;16.352;2022-08-19T05:26:04;9.05;;;5.35;;
43311;SDS011;30041;48.300;16.352;2022-08-19T05:28:30;9.32;;;6.20;;
43311;SDS011;30041;48.300;16.352;2022-08-19T05:30:56;8.45;;;5.20;;
43311;SDS011;30041;48.300;16.352;2022-08-19T05:33:22;7.78;;;5.35;;
43311;SDS011;30041;48.300;16.352;2022-08-19T05:35:48;8.32;;;5.40;;
43311;SDS011;30041;48.300;16.352;2022-08-19T05:38:15;10.55;;;5.78;;
43311;SDS011;30041;48.300;16.352;2022-08-19T05:40:45;10.07;;;5.65;;
43311;SDS011;30041;48.300;16.352;2022-08-19T05:43:11;12.82;;;5.03;;
43311;SDS011;30041;48.300;16.352;2022-08-19T05:45:38;10.20;;;5.05;;
43311;SDS011;30041;48.300;16.352;2022-08-19T05:48:05;8.80;;;5.30;;
43311;SDS011;30041;48.300;16.352;2022-08-19T05:50:35;10.73;;;4.93;;
43311;SDS011;30041;48.300;16.352;2022-08-19T05:53:01;6.72;;;4.97;;
43311;SDS011;30041;48.300;16.352;2022-08-19T05:55:29;7.18;;;5.13;;
43311;SDS011;30041;48.300;16.352;2022-08-19T05:57:55;7.55;;;5.10;;
43311;SDS011;30041;48.300;16.352;2022-08-19T06:00:21;8.57;;;5.55;;
43311;SDS011;30041;48.300;16.352;2022-08-19T06:02:47;8.98;;;5.55;;
43311;SDS011;30041;48.300;16.352;2022-08-19T06:05:12;7.57;;;4.82;;
43311;SDS011;30041;48.300;16.352;2022-08-19T06:07:41;10.80;;;5.32;;
43311;SDS011;30041;48.300;16.352;2022-08-19T06:10:12;7.57;;;4.85;;
43311;SDS011;30041;48.300;16.352;2022-08-19T06:12:38;7.60;;;5.10;;
43311;SDS011;30041;48.300;16.352;2022-08-19T06:15:11;8.88;;;4.97;;
43311;SDS011;30041;48.300;16.352;2022-08-19T06:17:38;7.80;;;5.10;;
43311;SDS011;30041;48.300;16.352;2022-08-19T06:20:08;7.45;;;5.20;;
43311;SDS011;30041;48.300;16.352;2022-08-19T06:22:39;10.07;;;4.70;;
43311;SDS011;30041;48.300;16.352;2022-08-19T06:25:10;8.70;;;5.18;;
43311;SDS011;30041;48.300;16.352;2022-08-19T06:27:37;7.18;;;4.50;;
43311;SDS011;30041;48.300;16.352;2022-08-19T06:30:06;7.75;;;4.68;;
43311;SDS011;30041;48.300;16.352;2022-08-19T06:32:32;8.02;;;4.47;;
43311;SDS011;30041;48.300;16.352;2022-08-19T06:34:58;12.35;;;4.45;;
43311;SDS011;30041;48.300;16.352;2022-08-19T06:37:23;10.63;;;4.55;;
43311;SDS011;30041;48.300;16.352;2022-08-19T06:39:49;7.93;;;4.25;;
43311;SDS011;30041;48.300;16.352;2022-08-19T06:42:15;9.85;;;4.90;;
43311;SDS011;30041;48.300;16.352;2022-08-19T06:44:42;12.50;;;5.72;;
43311;SDS011;30041;48.300;16.352;2022-08-19T06:47:13;12.98;;;5.85;;
43311;SDS011;30041;48.300;16.352;2022-08-19T06:49:44;12.70;;;5.80;;
43311;SDS011;30041;48.300;16.352;2022-08-19T06:52:13;10.32;;;5.13;;
43311;SDS011;30041;48.300;16.352;2022-08-19T06:54:44;10.40;;;5.38;;
43311;SDS011;30041;48.300;16.352;2022-08-19T06:57:18;9.32;;;5.30;;
43311;SDS011;30041;48.300;16.352;2022-08-19T06:59:46;12.65;;;5.30;;
43311;SDS011;30041;48.300;16.352;2022-08-19T07:02:18;10.55;;;4.95;;
43311;SDS011;30041;48.300;16.352;2022-08-19T07:04:54;8.77;;;5.05;;
43311;SDS011;30041;48.300;16.352;2022-08-19T07:07:20;9.05;;;4.93;;
43311;SDS011;30041;48.300;16.352;2022-08-19T07:09:52;6.85;;;4.57;;
43311;SDS011;30041;48.300;16.352;2022-08-19T07:12:27;10.18;;;5.00;;
43311;SDS011;30041;48.300;16.352;2022-08-19T07:14:57;8.07;;;5.18;;
43311;SDS011;30041;48.300;16.352;2022-08-19T07:17:26;8.63;;;5.05;;
43311;SDS011;30041;48.300;16.352;2022-08-19T07:19:57;10.90;;;5.15;;
43311;SDS011;30041;48.300;16.352;2022-08-19T07:22:27;8.75;;;5.03;;
43311;SDS011;30041;48.300;16.352;2022-08-19T07:24:56;9.18;;;4.55;;
43311;SDS011;30041;48.300;16.352;2022-08-19T07:27:25;15.50;;;4.60;;
43311;SDS011;30041;48.300;16.352;2022-08-19T07:29:51;7.63;;;4.75;;
43311;SDS011;30041;48.300;16.352;2022-08-19T07:32:18;8.15;;;4.72;;
43311;SDS011;30041;48.300;16.352;2022-08-19T07:34:46;10.30;;;5.35;;
43311;SDS011;30041;48.300;16.352;2022-08-19T07:37:12;14.45;;;5.30;;
43311;SDS011;30041;48.300;16.352;2022-08-19T07:39:38;10.43;;;4.45;;
43311;SDS011;30041;48.300;16.352;2022-08-19T07:42:06;15.95;;;5.15;;
43311;SDS011;30041;48.300;16.352;2022-08-19T07:44:34;20.88;;;4.85;;
43311;SDS011;30041;48.300;16.352;2022-08-19T07:47:00;16.45;;;4.60;;
43311;SDS011;30041;48.300;16.352;2022-08-19T07:49:28;16.80;;;4.57;;
43311;SDS011;30041;48.300;16.352;2022-08-19T07:51:56;46.80;;;5.40;;
43311;SDS011;30041;48.300;16.352;2022-08-19T07:54:27;10.00;;;4.60;;
43311;SDS011;30041;48.300;16.352;2022-08-19T07:56:56;11.90;;;4.70;;
43311;SDS011;30041;48.300;16.352;2022-08-19T07:59:22;10.77;;;4.15;;
43311;SDS011;30041;48.300;16.352;2022-08-19T08:01:49;8.60;;;4.38;;
43311;SDS011;30041;48.300;16.352;2022-08-19T08:04:18;10.40;;;4.30;;
43311;SDS011;30041;48.300;16.352;2022-08-19T08:06:44;9.55;;;4.55;;
43311;SDS011;30041;48.300;16.352;2022-08-19T08:09:11;6.50;;;3.85;;
43311;SDS011;30041;48.300;16.352;2022-08-19T08:11:53;13.85;;;3.92;;
43311;SDS011;30041;48.300;16.352;2022-08-19T08:14:28;16.63;;;4.55;;
43311;SDS011;30041;48.300;16.352;2022-08-19T08:16:57;12.80;;;4.07;;
43311;SDS011;30041;48.300;16.352;2022-08-19T08:19:24;11.00;;;4.57;;
43311;SDS011;30041;48.300;16.352;2022-08-19T08:21:51;6.93;;;4.10;;
43311;SDS011;30041;48.300;16.352;2022-08-19T08:24:19;13.30;;;4.75;;
43311;SDS011;30041;48.300;16.352;2022-08-19T08:26:45;9.70;;;4.40;;
43311;SDS011;30041;48.300;16.352;2022-08-19T08:29:14;8.60;;;4.38;;
43311;SDS011;30041;48.300;16.352;2022-08-19T08:31:51;10.82;;;4.60;;
43311;SDS011;30041;48.300;16.352;2022-08-19T08:34:17;8.18;;;4.82;;
43311;SDS011;30041;48.300;16.352;2022-08-19T08:36:43;13.35;;;4.70;;
43311;SDS011;30041;48.300;16.352;2022-08-19T08:39:15;8.30;;;4.75;;
43311;SDS011;30041;48.300;16.352;2022-08-19T08:42:12;13.50;;;4.87;;
43311;SDS011;30041;48.300;16.352;2022-08-19T08:47:03;19.63;;;5.25;;
43311;SDS011;30041;48.300;16.352;2022-08-19T08:49:54;15.25;;;4.57;;
43311;SDS011;30041;48.300;16.352;2022-08-19T08:52:44;18.15;;;4.75;;
43311;SDS011;30041;48.300;16.352;2022-08-19T08:55:15;9.73;;;4.20;;
43311;SDS011;30041;48.300;16.352;2022-08-19T08:57:49;13.88;;;4.38;;
43311;SDS011;30041;48.300;16.352;2022-08-19T09:00:22;14.50;;;4.05;;
43311;SDS011;30041;48.300;16.352;2022-08-19T09:02:53;16.52;;;4.20;;
43311;SDS011;30041;48.300;16.352;2022-08-19T09:05:21;11.45;;;4.85;;
43311;SDS011;30041;48.300;16.352;2022-08-19T09:13:10;11.85;;;4.45;;
43311;SDS011;30041;48.300;16.352;2022-08-19T09:15:58;11.85;;;4.40;;
43311;SDS011;30041;48.300;16.352;2022-08-19T09:18:43;12.52;;;4.60;;
43311;SDS011;30041;48.300;16.352;2022-08-19T09:21:16;7.38;;;3.72;;
43311;SDS011;30041;48.300;16.352;2022-08-19T09:23:41;12.63;;;4.50;;
43311;SDS011;30041;48.300;16.352;2022-08-19T09:26:11;17.38;;;4.32;;
43311;SDS011;30041;48.300;16.352;2022-08-19T09:28:39;16.80;;;4.75;;
43311;SDS011;30041;48.300;16.352;2022-08-19T09:31:06;17.42;;;4.20;;
43311;SDS011;30041;48.300;16.352;2022-08-19T09:33:31;8.18;;;3.47;;
43311;SDS011;30041;48.300;16.352;2022-08-19T09:36:06;13.80;;;4.25;;
43311;SDS011;30041;48.300;16.352;2022-08-19T09:38:37;10.70;;;4.10;;
43311;SDS011;30041;48.300;16.352;2022-08-19T09:41:07;10.68;;;4.53;;
43311;SDS011;30041;48.300;16.352;2022-08-19T09:43:35;11.90;;;4.10;;
43311;SDS011;30041;48.300;16.352;2022-08-19T09:46:00;8.27;;;4.13;;
43311;SDS011;30041;48.300;16.352;2022-08-19T09:48:31;11.55;;;4.30;;
43311;SDS011;30041;48.300;16.352;2022-08-19T09:51:07;10.57;;;4.68;;
43311;SDS011;30041;48.300;16.352;2022-08-19T09:53:35;14.43;;;4.60;;
43311;SDS011;30041;48.300;16.352;2022-08-19T09:56:03;14.95;;;4.03;;
43311;SDS011;30041;48.300;16.352;2022-08-19T09:58:30;11.68;;;4.50;;
43311;SDS011;30041;48.300;16.352;2022-08-19T10:01:00;9.20;;;4.30;;
43311;SDS011;30041;48.300;16.352;2022-08-19T10:03:27;9.88;;;4.13;;
43311;SDS011;30041;48.300;16.352;2022-08-19T10:05:58;10.38;;;4.05;;
43311;SDS011;30041;48.300;16.352;2022-08-19T10:08:27;7.68;;;4.25;;
43311;SDS011;30041;48.300;16.352;2022-08-19T10:10:58;11.68;;;3.75;;
43311;SDS011;30041;48.300;16.352;2022-08-19T10:13:26;7.10;;;3.80;;
43311;SDS011;30041;48.300;16.352;2022-08-19T10:15:55;8.75;;;4.05;;
43311;SDS011;30041;48.300;16.352;2022-08-19T10:18:22;10.65;;;4.53;;
43311;SDS011;30041;48.300;16.352;2022-08-19T10:20:49;6.22;;;3.80;;
43311;SDS011;30041;48.300;16.352;2022-08-19T10:23:16;8.40;;;4.05;;
43311;SDS011;30041;48.300;16.352;2022-08-19T10:25:42;7.90;;;3.85;;
43311;SDS011;30041;48.300;16.352;2022-08-19T10:28:08;5.97;;;3.85;;
43311;SDS011;30041;48.300;16.352;2022-08-19T10:30:35;6.63;;;3.50;;
43311;SDS011;30041;48.300;16.352;2022-08-19T10:33:01;6.88;;;3.72;;
43311;SDS011;30041;48.300;16.352;2022-08-19T10:35:27;7.22;;;3.53;;
43311;SDS011;30041;48.300;16.352;2022-08-19T10:37:52;6.45;;;3.53;;
43311;SDS011;30041;48.300;16.352;2022-08-19T10:40:18;9.65;;;3.70;;
43311;SDS011;30041;48.300;16.352;2022-08-19T10:42:47;5.78;;;3.35;;
43311;SDS011;30041;48.300;16.352;2022-08-19T10:45:12;9.07;;;3.45;;
43311;SDS011;30041;48.300;16.352;2022-08-19T10:47:41;6.95;;;3.30;;
43311;SDS011;30041;48.300;16.352;2022-08-19T10:50:11;8.68;;;3.50;;
43311;SDS011;30041;48.300;16.352;2022-08-19T10:52:38;5.70;;;3.15;;
43311;SDS011;30041;48.300;16.352;2022-08-19T10:55:06;6.93;;;3.40;;
43311;SDS011;30041;48.300;16.352;2022-08-19T10:57:32;6.20;;;3.55;;
43311;SDS011;30041;48.300;16.352;2022-08-19T10:59:58;8.00;;;3.85;;
43311;SDS011;30041;48.300;16.352;2022-08-19T11:02:35;7.57;;;3.25;;
43311;SDS011;30041;48.300;16.352;2022-08-19T11:05:01;7.72;;;3.33;;
43311;SDS011;30041;48.300;16.352;2022-08-19T11:07:26;6.90;;;3.22;;
43311;SDS011;30041;48.300;16.352;2022-08-19T11:09:52;8.45;;;3.78;;
43311;SDS011;30041;48.300;16.352;2022-08-19T11:12:23;11.38;;;3.67;;
43311;SDS011;30041;48.300;16.352;2022-08-19T11:14:49;5.25;;;3.22;;
43311;SDS011;30041;48.300;16.352;2022-08-19T11:17:15;5.32;;;3.30;;
43311;SDS011;30041;48.300;16.352;2022-08-19T11:19:41;6.57;;;3.22;;
43311;SDS011;30041;48.300;16.352;2022-08-19T11:22:08;6.75;;;3.47;;
43311;SDS011;30041;48.300;16.352;2022-08-19T11:24:34;7.97;;;3.35;;
43311;SDS011;30041;48.300;16.352;2022-08-19T11:27:01;7.07;;;3.10;;
43311;SDS011;30041;48.300;16.352;2022-08-19T11:29:31;4.85;;;2.95;;
43311;SDS011;30041;48.300;16.352;2022-08-19T11:31:58;7.68;;;3.00;;
43311;SDS011;30041;48.300;16.352;2022-08-19T11:34:25;7.13;;;3.60;;
43311;SDS011;30041;48.300;16.352;2022-08-19T11:36:52;8.57;;;3.17;;
43311;SDS011;30041;48.300;16.352;2022-08-19T11:39:21;5.90;;;3.15;;
43311;SDS011;30041;48.300;16.352;2022-08-19T11:41:50;5.10;;;3.30;;
43311;SDS011;30041;48.300;16.352;2022-08-19T11:44:16;8.13;;;3.20;;
43311;SDS011;30041;48.300;16.352;2022-08-19T11:46:42;6.32;;;3.22;;
43311;SDS011;30041;48.300;16.352;2022-08-19T11:49:12;4.82;;;3.30;;
43311;SDS011;30041;48.300;16.352;2022-08-19T11:51:42;5.38;;;3.10;;
43311;SDS011;30041;48.300;16.352;2022-08-19T11:54:08;5.03;;;3.25;;
43311;SDS011;30041;48.300;16.352;2022-08-19T11:56:36;5.90;;;3.08;;
43311;SDS011;30041;48.300;16.352;2022-08-19T11:59:03;8.18;;;4.18;;
43311;SDS011;30041;48.300;16.352;2022-08-19T12:01:32;11.00;;;3.83;;
43311;SDS011;30041;48.300;16.352;2022-08-19T12:04:03;15.55;;;4.88;;
43311;SDS011;30041;48.300;16.352;2022-08-19T12:06:29;10.65;;;4.10;;
43311;SDS011;30041;48.300;16.352;2022-08-19T12:09:04;14.90;;;4.28;;
43311;SDS011;30041;48.300;16.352;2022-08-19T12:11:32;11.18;;;4.25;;
43311;SDS011;30041;48.300;16.352;2022-08-19T12:13:58;9.38;;;4.03;;
43311;SDS011;30041;48.300;16.352;2022-08-19T12:16:25;7.60;;;3.67;;
43311;SDS011;30041;48.300;16.352;2022-08-19T12:18:52;11.95;;;4.13;;
43311;SDS011;30041;48.300;16.352;2022-08-19T12:21:20;9.35;;;4.07;;
43311;SDS011;30041;48.300;16.352;2022-08-19T12:23:48;12.23;;;3.70;;
43311;SDS011;30041;48.300;16.352;2022-08-19T12:26:15;13.18;;;4.30;;
43311;SDS011;30041;48.300;16.352;2022-08-19T12:28:41;16.85;;;4.43;;
43311;SDS011;30041;48.300;16.352;2022-08-19T12:31:07;14.13;;;4.13;;
43311;SDS011;30041;48.300;16.352;2022-08-19T12:33:33;9.25;;;3.88;;
43311;SDS011;30041;48.300;16.352;2022-08-19T12:36:03;12.18;;;4.80;;
43311;SDS011;30041;48.300;16.352;2022-08-19T12:38:31;10.18;;;4.47;;
43311;SDS011;30041;48.300;16.352;2022-08-19T12:41:01;10.18;;;4.07;;
43311;SDS011;30041;48.300;16.352;2022-08-19T12:43:27;7.85;;;4.00;;
43311;SDS011;30041;48.300;16.352;2022-08-19T12:45:53;11.35;;;3.75;;
43311;SDS011;30041;48.300;16.352;2022-08-19T12:48:19;8.30;;;3.90;;
43311;SDS011;30041;48.300;16.352;2022-08-19T12:50:47;10.40;;;4.07;;
43311;SDS011;30041;48.300;16.352;2022-08-19T12:53:13;11.93;;;4.10;;
43311;SDS011;30041;48.300;16.352;2022-08-19T12:55:40;11.57;;;3.92;;
43311;SDS011;30041;48.300;16.352;2022-08-19T12:58:07;10.38;;;3.90;;
43311;SDS011;30041;48.300;16.352;2022-08-19T13:00:32;10.07;;;3.85;;
43311;SDS011;30041;48.300;16.352;2022-08-19T13:03:01;9.95;;;3.95;;
43311;SDS011;30041;48.300;16.352;2022-08-19T13:05:31;10.90;;;3.95;;
43311;SDS011;30041;48.300;16.352;2022-08-19T13:07:58;9.23;;;3.60;;
43311;SDS011;30041;48.300;16.352;2022-08-19T13:10:28;11.63;;;3.65;;
43311;SDS011;30041;48.300;16.352;2022-08-19T13:12:55;9.48;;;3.80;;
43311;SDS011;30041;48.300;16.352;2022-08-19T13:15:22;9.73;;;3.70;;
43311;SDS011;30041;48.300;16.352;2022-08-19T13:17:49;10.43;;;3.72;;
43311;SDS011;30041;48.300;16.352;2022-08-19T13:20:17;13.55;;;3.85;;
43311;SDS011;30041;48.300;16.352;2022-08-19T13:22:43;10.27;;;3.97;;
43311;SDS011;30041;48.300;16.352;2022-08-19T13:25:10;9.63;;;3.90;;
43311;SDS011;30041;48.300;16.352;2022-08-19T13:27:37;15.75;;;4.25;;
43311;SDS011;30041;48.300;16.352;2022-08-19T13:30:05;19.60;;;4.30;;
43311;SDS011;30041;48.300;16.352;2022-08-19T13:32:36;13.20;;;4.45;;
43311;SDS011;30041;48.300;16.352;2022-08-19T13:35:02;15.32;;;4.20;;
43311;SDS011;30041;48.300;16.352;2022-08-19T13:37:31;20.90;;;4.50;;
43311;SDS011;30041;48.300;16.352;2022-08-19T13:39:59;13.50;;;4.28;;
43311;SDS011;30041;48.300;16.352;2022-08-19T13:42:25;16.05;;;4.40;;
43311;SDS011;30041;48.300;16.352;2022-08-19T13:44:52;21.60;;;4.63;;
43311;SDS011;30041;48.300;16.352;2022-08-19T13:47:21;19.10;;;4.82;;
43311;SDS011;30041;48.300;16.352;2022-08-19T13:49:47;15.30;;;4.10;;
43311;SDS011;30041;48.300;16.352;2022-08-19T13:52:13;17.67;;;4.50;;
43311;SDS011;30041;48.300;16.352;2022-08-19T13:54:38;13.20;;;4.10;;
43311;SDS011;30041;48.300;16.352;2022-08-19T13:57:04;12.30;;;4.00;;
43311;SDS011;30041;48.300;16.352;2022-08-19T13:59:30;14.40;;;4.78;;
43311;SDS011;30041;48.300;16.352;2022-08-19T14:01:58;18.67;;;4.57;;
43311;SDS011;30041;48.300;16.352;2022-08-19T14:04:25;14.60;;;4.30;;
43311;SDS011;30041;48.300;16.352;2022-08-19T14:06:51;11.13;;;3.60;;
43311;SDS011;30041;48.300;16.352;2022-08-19T14:09:24;10.13;;;3.80;;
43311;SDS011;30041;48.300;16.352;2022-08-19T14:11:50;21.45;;;4.03;;
43311;SDS011;30041;48.300;16.352;2022-08-19T14:14:19;33.75;;;4.95;;
43311;SDS011;30041;48.300;16.352;2022-08-19T14:16:44;16.27;;;4.03;;
43311;SDS011;30041;48.300;16.352;2022-08-19T14:19:10;13.55;;;3.67;;
43311;SDS011;30041;48.300;16.352;2022-08-19T14:21:35;17.05;;;4.10;;
43311;SDS011;30041;48.300;16.352;2022-08-19T14:24:01;15.77;;;4.05;;
43311;SDS011;30041;48.300;16.352;2022-08-19T14:26:30;14.15;;;3.90;;
43311;SDS011;30041;48.300;16.352;2022-08-19T14:28:55;15.93;;;3.95;;
43311;SDS011;30041;48.300;16.352;2022-08-19T14:31:21;13.98;;;3.72;;
43311;SDS011;30041;48.300;16.352;2022-08-19T14:33:47;14.23;;;3.70;;
43311;SDS011;30041;48.300;16.352;2022-08-19T14:36:13;14.43;;;3.78;;
43311;SDS011;30041;48.300;16.352;2022-08-19T14:38:39;16.92;;;4.35;;
43311;SDS011;30041;48.300;16.352;2022-08-19T14:41:09;13.38;;;4.13;;
43311;SDS011;30041;48.300;16.352;2022-08-19T14:43:37;14.73;;;4.50;;